• Join FlightAware (Why Join?)
  • Login
  • US Flag 
11:53AM EDT


 

Airport Tracker/Info


-or-


 

Live Flight TrackerFlight Track Log ✈ DAL374 ✈ 03-Jul-2013 ✈ KATL - KDCA

Flight Track Log - Related Links

Times and Time Zones

All times are in EDT time to prevent confusion due to time zone crossing. See the DAL374 flight status page for this flight to view local times or setup timezone preferences in your user account.

Time Position Orientation Groundspeed Altitude Reporting Facility
EDT Latitude Longitude Course Direction KTS MPH feet Rate Location/Type
10:12PM 33.6333 -84.4000 53° Northeast 157 181 2,400  Level Atlanta TRACON
10:13PM 33.6333 -84.3333 90° East 225 259 3,400 1,800 Climbing Atlanta TRACON
10:14PM 33.7274 -84.0155 54° Northeast  Level FlightAware Approximate
10:14PM 33.6333 -84.2333 90° East 277 319 6,000  Level Atlanta TRACON
10:15PM 33.7954 -83.9023 54° Northeast  Level FlightAware Approximate
10:15PM 33.6378 -84.1111 87° East 288 331 9,900  Level Atlanta Center
10:16PM 33.8633 -83.7890 54° Northeast  Level FlightAware Approximate
10:16PM 33.6942 -84.0239 52° Northeast 300 345 11,300  Level Atlanta Center
10:17PM 33.9381 -83.6823 53° Northeast  Level FlightAware Approximate
10:17PM 33.7608 -83.9389 47° Northeast 351 404 12,700  Level Atlanta Center
10:18PM 33.8358 -83.8411 47° Northeast 381 438 14,600 1,980 Climbing Atlanta Center
10:19PM 33.9150 -83.7358 48° Northeast 408 470 16,700 1,800 Climbing Atlanta Center
10:20PM 33.9897 -83.6253 51° Northeast 423 487 18,300 1,440 Climbing Atlanta Center
10:21PM 34.0622 -83.5047 54° Northeast 432 497 19,600 1,440 Climbing Atlanta Center
10:22PM 34.1411 -83.3836 52° Northeast 445 512 21,200 1,380 Climbing Atlanta Center
10:23PM 34.2175 -83.2575 54° Northeast 451 519 22,400 1,200 Climbing Atlanta Center
10:24PM 34.2961 -83.1311 53° Northeast 462 532 23,700 1,260 Climbing Atlanta Center
10:25PM 34.3783 -83.0019 52° Northeast 475 547 25,000 1,200 Climbing Atlanta Center
10:26PM 34.4669 -82.8622 52° Northeast 480 552 26,100 960 Climbing Atlanta Center
10:27PM 34.5492 -82.7300 53° Northeast 485 558 27,000 900 Climbing Atlanta Center
10:28PM 34.6225 -82.5900 57° Northeast 485 558 27,900 780 Climbing Atlanta Center
10:29PM 34.7022 -82.4547 54° Northeast 485 558 28,600 900 Climbing Atlanta Center
10:30PM 34.7817 -82.3089 56° Northeast 498 573 29,700 1,080 Climbing Atlanta Center
10:31PM 34.8589 -82.1706 56° Northeast 498 573 30,800 1,200 Climbing Atlanta Center
10:32PM 34.9361 -82.0372 55° Northeast 498 573 32,100 1,080 Climbing Atlanta Center
10:33PM 35.0092 -81.9036 56° Northeast 493 567 33,000 420 Climbing Atlanta Center
10:34PM 35.0858 -81.7644 56° Northeast 488 562 33,000  Level Atlanta Center
10:35PM 35.1564 -81.6306 57° Northeast 481 554 33,000  Level Atlanta Center
10:36PM 35.2331 -81.4961 55° Northeast 481 554 33,000  Level Atlanta Center
10:37PM 35.2972 -81.3769 57° Northeast 481 554 33,000  Level Atlanta Center
10:38PM 35.3672 -81.2422 57° Northeast 465 535 33,000  Level Atlanta Center
10:39PM 35.4469 -81.0892 57° Northeast 474 545 33,000  Level Atlanta Center
10:40PM 35.5231 -80.9564 55° Northeast 474 545 33,000  Level Atlanta Center
10:43PM 35.6722 -80.6803 56° Northeast 482 555 33,000  Level Washington Center
10:44PM 35.7469 -80.5392 57° Northeast 487 560 33,000  Level Washington Center
10:45PM 35.8233 -80.4081 54° Northeast 487 560 33,000  Level Washington Center
10:46PM 35.8997 -80.2717 55° Northeast 482 555 33,000  Level Washington Center
10:47PM 35.9758 -80.1375 55° Northeast 472 543 33,000  Level Washington Center
10:48PM 36.0606 -79.9933 54° Northeast 470 541 33,000  Level Washington Center
10:49PM 36.1361 -79.8614 55° Northeast 470 541 33,100  Climbing Washington Center
10:50PM 36.2122 -79.7186 57° Northeast 486 559 33,000 -60 Descending Washington Center
10:51PM 36.2789 -79.6011 55° Northeast 481 554 33,000  Level Washington Center
10:52PM 36.3608 -79.4531 55° Northeast 474 545 33,000 -300 Level Washington Center
10:53PM 36.4275 -79.3275 57° Northeast 474 545 32,500 -1,080 Descending Washington Center
10:54PM 36.5025 -79.1939 55° Northeast 474 545 30,900 -1,860 Descending Washington Center
10:55PM 36.5861 -79.0478 54° Northeast 474 545 28,900 -1,920 Descending Washington Center
10:56PM 36.6608 -78.9086 56° Northeast 474 545 27,100 -1,740 Descending Washington Center
10:57PM 36.7358 -78.7669 57° Northeast 485 558 25,500 -1,080 Descending Washington Center
10:58PM 36.8061 -78.6322 57° Northeast 480 552 25,000 -300 Descending Washington Center
10:59PM 36.8736 -78.5103 55° Northeast 475 547 25,000  Level Washington Center
11:00PM 36.9458 -78.3778 56° Northeast 470 541 25,000  Level Washington Center
11:01PM 37.0886 -78.2450 37° Northeast 470 541 25,000  Level Washington Center
11:02PM 37.1800 -78.1622 36° Northeast 483 556 25,000  Level Washington Center
11:03PM 37.3033 -78.0514 36° Northeast 488 562 25,000  Level Washington Center
11:04PM 37.4158 -77.9531 35° Northeast 493 567 25,000  Level Washington Center
11:05PM 37.5306 -77.8467 36° Northeast 498 573 25,000 -480 Level Washington Center
11:06PM 37.6450 -77.7478 34° Northeast 498 573 24,100 -1,620 Descending Washington Center
11:07PM 37.7531 -77.6508 35° Northeast 491 565 21,800 -2,340 Descending Washington Center
11:08PM 37.8528 -77.5589 36° Northeast 468 539 19,500 -2,160 Descending Washington Center
11:09PM 37.9458 -77.4719 36° Northeast 438 504 17,700 -2,040 Descending Washington Center
11:10PM 38.0389 -77.3897 35° Northeast 416 479 15,500 -2,100 Descending Washington Center
11:11PM 38.1297 -77.3103 35° Northeast 401 461 13,500 -1,980 Descending Washington Center
11:12PM 38.2164 -77.2303 36° Northeast 389 448 11,600 -1,740 Descending Washington Center
11:13PM 38.3008 -77.1528 36° Northeast 383 441 10,100 -840 Descending Washington Center
11:14PM 38.4031 -77.1364 North 365 420 10,000 -60 Descending Washington Center
11:15PM 38.5056 -77.1144 10° North 360 414 10,000  Level Washington Center
11:16PM 38.6058 -77.0900 11° North 360 414 10,000  Level Washington Center
11:17PM 38.7061 -77.0708 North 360 414 10,000 -900 Level Washington Center
11:18PM 38.7872 -77.0883 350° North 313 360 8,200 -2,100 Descending Washington Center
11:19PM 38.8667 -77.1667 322° Northwest 284 327 5,500 -2,280 Descending Potomac TRACON
11:20PM 38.9333 -77.2333 322° Northwest 274 315 3,200 -1,200 Descending Potomac TRACON
11:21PM 38.9833 -77.2000 27° Northeast 226 260 3,100 -120 Descending Potomac TRACON